Time;durP1;ratioP1;P1;durP2;ratioP2;P2;SDS_P1;SDS_P2;PMS_P1;PMS_P2;Temp;Humidity;BMP_temperature;BMP_pressure;BME280_temperature;BME280_humidity;BME280_pressure;Samples;Min_cycle;Max_cycle;Signal;HPM_P1;HPM_P2
2022/09/23 00:05:03;;;;;;;19.13;10.73;;;7.00;99.90;;;;;;10336774;28;20239;-81
2022/09/23 00:10:26;;;;;;;15.73;9.40;;;6.90;99.90;;;;;;10324436;28;20207;-81
2022/09/23 00:15:48;;;;;;;17.40;9.33;;;6.80;99.90;;;;;;10324104;28;20218;-81
2022/09/23 00:28:23;;;;;;;18.53;10.07;;;6.80;99.90;;;;;;10355557;28;20207;-82
2022/09/23 00:33:44;;;;;;;15.30;8.00;;;6.80;99.90;;;;;;10357853;23;20241;-82
2022/09/23 00:39:06;;;;;;;13.37;8.20;;;6.70;99.90;;;;;;10341395;28;20215;-81
2022/09/23 00:44:53;;;;;;;14.77;7.37;;;6.70;99.90;;;;;;10359366;28;20884;-81
2022/09/23 00:50:33;;;;;;;12.47;7.73;;;6.70;99.90;;;;;;10346230;28;20206;-82
2022/09/23 00:56:14;;;;;;;12.97;7.63;;;6.60;99.90;;;;;;10351486;28;20497;-82
2022/09/23 01:01:43;;;;;;;15.77;8.13;;;6.60;99.90;;;;;;10369888;28;20217;-82
2022/09/23 01:07:10;;;;;;;11.67;7.80;;;6.60;99.90;;;;;;10356128;28;20260;-81
2022/09/23 01:12:50;;;;;;;12.00;7.97;;;6.50;99.90;;;;;;10369954;28;20220;-82
2022/09/23 01:18:21;;;;;;;13.97;8.07;;;6.60;99.90;;;;;;10371417;28;20216;-82
2022/09/23 01:24:03;;;;;;;16.93;8.80;;;6.60;99.90;;;;;;10369858;28;20230;-82
2022/09/23 01:30:02;;;;;;;15.50;9.03;;;6.60;99.90;;;;;;10329267;28;20259;-82
2022/09/23 01:35:42;;;;;;;16.70;8.80;;;6.40;99.90;;;;;;10345071;28;20207;-81
2022/09/23 01:41:12;;;;;;;13.30;8.77;;;6.30;80.40;;;;;;10354682;28;20202;-81
2022/09/23 01:47:18;;;;;;;14.30;8.63;;;6.30;77.70;;;;;;10371938;28;20228;-81
2022/09/23 01:52:43;;;;;;;11.47;6.83;;;6.30;99.90;;;;;;10327668;28;20206;-81
2022/09/23 01:58:14;;;;;;;11.10;6.90;;;6.40;99.90;;;;;;10346877;28;20202;-82
2022/09/23 02:11:12;;;;;;;20.30;8.90;;;6.30;99.90;;;;;;10230468;29;20532;-81
2022/09/23 02:16:43;;;;;;;14.80;8.67;;;6.20;99.90;;;;;;10220774;29;20204;-81
2022/09/23 02:22:15;;;;;;;18.37;9.63;;;6.10;99.90;;;;;;10204359;29;20227;-81
2022/09/23 02:28:02;;;;;;;15.63;9.00;;;6.10;99.90;;;;;;10167182;29;20257;-82
2022/09/23 02:33:42;;;;;;;18.03;10.50;;;6.20;99.90;;;;;;10201296;29;20243;-81
2022/09/23 02:39:07;;;;;;;17.07;10.30;;;6.20;99.90;;;;;;10174812;29;20212;-81
2022/09/23 02:44:29;;;;;;;17.13;9.87;;;6.40;99.90;;;;;;10281358;28;20534;-81
2022/09/23 02:49:52;;;;;;;15.37;10.00;;;6.40;99.90;;;;;;10365327;28;20211;-81
2022/09/23 02:55:16;;;;;;;17.07;9.90;;;6.30;99.90;;;;;;10379628;28;20215;-81
2022/09/23 03:01:01;;;;;;;15.83;9.47;;;6.40;99.90;;;;;;10379901;28;20491;-81
2022/09/23 03:06:52;;;;;;;11.60;8.40;;;6.40;99.90;;;;;;10355237;28;20238;-81
2022/09/23 03:12:35;;;;;;;13.90;8.47;;;6.50;99.90;;;;;;10367165;28;20205;-81
2022/09/23 03:18:15;;;;;;;16.70;10.10;;;6.50;99.90;;;;;;10381763;28;20402;-82
2022/09/23 03:23:39;;;;;;;22.60;11.40;;;6.50;99.90;;;;;;10363130;28;20243;-81
2022/09/23 03:29:08;;;;;;;15.93;10.20;;;6.40;99.90;;;;;;10344323;28;20211;-82
2022/09/23 03:34:32;;;;;;;12.90;8.30;;;6.50;1.00;;;;;;10357220;28;20212;-82
2022/09/23 03:40:15;;;;;;;12.23;7.63;;;6.70;1.00;;;;;;10364914;28;20221;-82
2022/09/23 03:45:37;;;;;;;22.60;12.93;;;6.70;1.00;;;;;;10337914;28;20261;-82
2022/09/23 03:51:07;;;;;;;31.70;20.70;;;6.60;99.90;;;;;;10327244;28;20202;-82
2022/09/23 03:56:28;;;;;;;36.87;23.03;;;6.50;99.90;;;;;;10340662;28;20461;-83
2022/09/23 04:01:50;;;;;;;21.40;15.07;;;6.60;1.00;;;;;;10311471;28;20219;-83
2022/09/23 04:07:57;;;;;;;26.17;16.57;;;6.50;1.00;;;;;;10331942;28;20234;-83
2022/09/23 04:13:37;;;;;;;30.67;16.70;;;6.50;99.90;;;;;;10351296;28;20213;-81
2022/09/23 04:18:58;;;;;;;32.40;16.17;;;6.40;99.90;;;;;;10330947;28;20242;-81
2022/09/23 04:24:20;;;;;;;30.80;14.07;;;6.40;99.90;;;;;;10335128;28;20308;-81
2022/09/23 04:29:42;;;;;;;28.40;14.63;;;6.30;99.90;;;;;;10364674;28;20230;-82
2022/09/23 04:35:05;;;;;;;24.13;13.27;;;6.20;99.90;;;;;;10387926;28;20208;-83
2022/09/23 04:40:26;;;;;;;30.37;12.90;;;6.20;99.90;;;;;;10365207;28;20196;-82
2022/09/23 04:45:55;;;;;;;29.17;17.37;;;6.10;99.90;;;;;;10351172;28;20235;-81
2022/09/23 04:51:19;;;;;;;30.00;17.00;;;6.20;99.90;;;;;;10369877;28;20212;-82
2022/09/23 04:56:41;;;;;;;34.53;18.90;;;6.20;99.90;;;;;;10370288;28;20271;-81
2022/09/23 05:02:02;;;;;;;30.93;16.73;;;6.20;99.90;;;;;;10350490;28;20387;-81
2022/09/23 05:07:24;;;;;;;28.10;14.30;;;6.10;99.90;;;;;;10329612;28;20557;-82
2022/09/23 05:12:46;;;;;;;26.30;15.00;;;6.10;99.90;;;;;;10329628;28;20431;-81
2022/09/23 05:18:07;;;;;;;26.77;17.17;;;6.20;99.90;;;;;;10316106;28;20222;-82
2022/09/23 05:23:29;;;;;;;31.20;20.80;;;6.30;99.90;;;;;;10356464;28;20236;-82
2022/09/23 05:28:51;;;;;;;32.20;21.10;;;6.30;99.90;;;;;;10385115;28;20210;-83
2022/09/23 05:34:12;;;;;;;27.50;16.10;;;6.40;1.00;;;;;;10333758;28;20261;-82
2022/09/23 05:39:33;;;;;;;28.80;15.67;;;6.60;99.90;;;;;;10328740;28;20202;-82
2022/09/23 05:44:55;;;;;;;24.37;16.13;;;6.70;99.90;;;;;;10358073;28;20296;-82
2022/09/23 05:50:16;;;;;;;32.63;18.57;;;6.80;99.90;;;;;;10367862;28;20197;-83
2022/09/23 05:55:38;;;;;;;34.97;19.90;;;7.10;99.90;;;;;;10381870;28;20208;-82
2022/09/23 06:01:00;;;;;;;27.37;18.33;;;7.20;99.90;;;;;;10345003;28;20246;-82
2022/09/23 06:06:34;;;;;;;33.50;21.57;;;7.40;99.90;;;;;;10328576;28;20472;-83
2022/09/23 06:11:55;;;;;;;66.60;33.07;;;7.60;99.90;;;;;;10357375;28;20250;-83
2022/09/23 06:17:16;;;;;;;60.40;31.50;;;7.70;1.00;;;;;;10380537;28;20256;-82
2022/09/23 06:22:38;;;;;;;64.20;33.93;;;7.90;99.90;;;;;;10326692;28;20202;-83
2022/09/23 06:28:00;;;;;;;64.67;35.70;;;8.00;99.90;;;;;;10340737;28;20291;-83
2022/09/23 06:33:21;;;;;;;65.63;33.10;;;8.10;99.90;;;;;;10344338;28;20245;-82
2022/09/23 06:38:49;;;;;;;71.83;36.37;;;8.40;99.90;;;;;;10325691;28;20277;-82
2022/09/23 06:44:11;;;;;;;60.87;32.53;;;;;;;;;;10312346;28;20239;-83
2022/09/23 06:49:32;;;;;;;61.53;32.07;;;10.00;99.90;;;;;;10351437;28;20199;-83
2022/09/23 06:54:54;;;;;;;48.70;24.40;;;;;;;;;;10339121;28;20247;-84
2022/09/23 07:00:15;;;;;;;14.65;8.07;;;12.70;99.90;;;;;;10325855;28;20209;-83
2022/09/23 07:05:37;;;;;;;4.55;3.30;;;15.00;1.00;;;;;;10324864;28;20237;-84
2022/09/23 07:11:01;;;;;;;7.60;3.75;;;16.60;99.90;;;;;;10325059;28;20201;-83
2022/09/23 07:16:22;;;;;;;2.33;1.83;;;18.10;99.90;;;;;;10341165;28;20434;-84
2022/09/23 07:21:43;;;;;;;3.80;2.80;;;19.20;99.90;;;;;;10339566;28;20273;-83
2022/09/23 07:27:05;;;;;;;4.72;1.52;;;;;;;;;;10330853;28;20244;-88
2022/09/23 07:32:27;;;;;;;1.63;1.38;;;20.70;1.00;;;;;;10337114;28;20247;-84
2022/09/23 07:37:49;;;;;;;1.70;1.35;;;21.30;99.90;;;;;;10335276;28;20285;-82
2022/09/23 07:43:11;;;;;;;1.92;1.20;;;21.30;46.90;;;;;;10363107;28;20512;-82
2022/09/23 07:48:33;;;;;;;6.25;1.40;;;21.40;1.00;;;;;;10384352;28;20225;-83
2022/09/23 07:53:55;;;;;;;3.60;1.33;;;21.50;1.00;;;;;;10355795;28;20210;-83
2022/09/23 07:59:18;;;;;;;1.92;1.38;;;21.20;1.00;;;;;;10332264;28;20201;-82
2022/09/23 08:04:40;;;;;;;6.32;2.80;;;22.30;1.00;;;;;;10383946;28;20242;-82
2022/09/23 08:10:03;;;;;;;2.83;1.80;;;22.80;1.00;;;;;;10342589;28;20210;-84
2022/09/23 08:15:27;;;;;;;2.60;1.55;;;23.10;1.00;;;;;;10336442;28;20256;-82
2022/09/23 08:20:48;;;;;;;1.52;1.23;;;23.50;1.00;;;;;;10336726;28;20205;-82
2022/09/23 08:26:10;;;;;;;5.97;3.65;;;23.50;1.00;;;;;;10323249;28;20548;-82
2022/09/23 08:31:36;;;;;;;3.45;1.40;;;23.40;1.00;;;;;;10363680;28;20237;-83
2022/09/23 08:36:57;;;;;;;2.30;1.35;;;24.00;1.00;;;;;;10370423;28;20201;-80
2022/09/23 08:42:29;;;;;;;2.22;1.40;;;24.50;1.00;;;;;;10368507;28;20240;-81
2022/09/23 08:48:07;;;;;;;2.00;1.55;;;24.40;1.00;;;;;;10324791;28;20435;-81
2022/09/23 08:53:46;;;;;;;1.88;1.10;;;24.60;1.00;;;;;;10406750;28;20205;-82
2022/09/23 08:59:27;;;;;;;2.42;1.00;;;24.90;1.00;;;;;;10380073;28;20259;-82
2022/09/23 09:04:59;;;;;;;0.75;0.73;;;25.40;99.90;;;;;;10384699;28;20295;-81
2022/09/23 09:10:24;;;;;;;1.52;0.80;;;25.10;1.00;;;;;;10380974;28;20214;-81
2022/09/23 09:15:53;;;;;;;1.27;0.90;;;;;;;;;;10354732;28;20277;-84
2022/09/23 09:21:15;;;;;;;10.95;8.57;;;26.40;99.90;;;;;;10355034;28;20210;-82
2022/09/23 09:26:38;;;;;;;2.30;1.05;;;26.60;99.90;;;;;;10361652;28;20251;-83
2022/09/23 09:32:17;;;;;;;0.77;0.60;;;25.90;99.90;;;;;;10358614;28;20470;-84
2022/09/23 09:37:47;;;;;;;1.92;0.73;;;26.10;99.90;;;;;;10310252;28;20220;-83
2022/09/23 09:43:09;;;;;;;1.75;1.10;;;25.40;99.90;;;;;;10383129;28;20210;-82
2022/09/23 09:49:02;;;;;;;0.60;0.60;;;23.50;99.90;;;;;;10348653;28;20213;-82
2022/09/23 09:54:24;;;;;;;1.00;0.85;;;23.20;99.90;;;;;;10333322;28;20225;-82
2022/09/23 09:59:46;;;;;;;1.17;0.90;;;24.60;99.90;;;;;;10321853;28;20182;-83
2022/09/23 10:05:29;;;;;;;0.40;0.40;;;26.20;99.90;;;;;;10363615;28;20240;-82
2022/09/23 10:10:53;;;;;;;1.35;0.65;;;25.00;99.90;;;;;;10366806;28;20205;-81
2022/09/23 10:16:15;;;;;;;0.65;0.60;;;24.20;99.90;;;;;;10353207;28;20216;-82
2022/09/23 10:21:37;;;;;;;4.00;2.67;;;22.80;99.90;;;;;;10351837;28;20200;-83
2022/09/23 10:27:00;;;;;;;0.65;0.52;;;21.50;99.90;;;;;;10349459;28;20313;-83
2022/09/23 10:32:39;;;;;;;1.63;1.00;;;20.10;99.90;;;;;;10321507;28;20615;-83
2022/09/23 10:38:00;;;;;;;1.48;0.95;;;19.10;99.90;;;;;;10321723;28;20221;-82
2022/09/23 10:49:41;;;;;;;7.03;1.70;;;18.20;99.90;;;;;;10340097;28;20513;-80
2022/09/23 10:55:12;;;;;;;1.08;0.98;;;17.90;99.90;;;;;;10378217;28;20282;-82
2022/09/23 11:01:01;;;;;;;1.42;1.20;;;17.80;1.00;;;;;;10339220;28;20812;-83
2022/09/23 11:07:01;;;;;;;4.00;1.10;;;17.70;1.00;;;;;;10319956;28;20553;-82
2022/09/23 11:12:37;;;;;;;1.38;1.10;;;17.40;1.00;;;;;;10171754;29;20214;-83
2022/09/23 11:18:04;;;;;;;3.05;1.02;;;16.90;1.00;;;;;;10149891;29;20393;-82
2022/09/23 11:23:35;;;;;;;1.38;0.95;;;17.00;1.00;;;;;;10172611;29;20293;-84
2022/09/23 11:29:22;;;;;;;1.83;1.13;;;17.20;1.00;;;;;;10185516;29;20240;-83
2022/09/23 11:34:58;;;;;;;1.70;1.20;;;17.20;1.00;;;;;;10198494;29;20217;-82
2022/09/23 11:40:30;;;;;;;3.45;1.45;;;17.20;1.00;;;;;;10208483;29;20213;-81
2022/09/23 12:08:31;;;;;;;1.48;0.90;;;19.40;1.00;;;;;;10592551;27;20540;-80
2022/09/23 12:14:04;;;;;;;3.92;1.10;;;20.30;1.00;;;;;;10574631;28;20197;-80
2022/09/23 12:19:55;;;;;;;7.00;1.88;;;20.40;1.00;;;;;;10575196;28;20186;-78
2022/09/23 12:25:45;;;;;;;6.70;2.38;;;19.80;1.00;;;;;;10566473;28;20462;-80
2022/09/23 12:39:01;;;;;;;1.58;0.65;;;18.70;1.00;;;;;;10602002;28;20189;-80
2022/09/23 12:44:36;;;;;;;2.45;1.35;;;18.60;1.00;;;;;;10584618;28;20248;-80
2022/09/23 12:50:00;;;;;;;2.20;1.55;;;19.40;1.00;;;;;;10556040;28;20218;-80
2022/09/23 12:55:21;;;;;;;1.95;1.40;;;20.60;1.00;;;;;;10579041;28;20255;-81
2022/09/23 13:01:06;;;;;;;0.73;0.70;;;21.40;1.00;;;;;;10587615;28;20414;-81
2022/09/23 13:06:40;;;;;;;1.27;0.98;;;21.70;1.00;;;;;;10587828;28;20548;-82
2022/09/23 13:12:05;;;;;;;1.50;0.88;;;21.40;99.90;;;;;;10560629;28;20194;-80
2022/09/23 13:17:37;;;;;;;0.75;0.60;;;21.20;99.90;;;;;;10541412;28;20187;-81
2022/09/23 13:23:04;;;;;;;1.13;0.73;;;21.40;99.90;;;;;;10545271;28;20216;-80
2022/09/23 13:28:51;;;;;;;0.63;0.63;;;21.80;99.90;;;;;;10461920;28;20546;-82
2022/09/23 13:34:15;;;;;;;1.05;0.70;;;22.00;99.90;;;;;;10442845;28;20236;-81
2022/09/23 13:39:36;;;;;;;0.88;0.68;;;22.40;99.90;;;;;;10475409;28;20207;-82
2022/09/23 13:44:59;;;;;;;1.13;0.82;;;22.10;99.90;;;;;;10527067;28;20525;-81
2022/09/23 13:50:24;;;;;;;1.20;0.68;;;21.90;99.90;;;;;;10485365;28;20184;-81
2022/09/23 13:55:45;;;;;;;0.60;0.57;;;21.70;99.90;;;;;;10494740;28;20513;-81
2022/09/23 14:01:29;;;;;;;0.65;0.65;;;21.30;99.90;;;;;;10487870;28;20195;-81
2022/09/23 14:06:51;;;;;;;1.27;0.98;;;20.50;99.90;;;;;;10485261;28;20845;-80
2022/09/23 14:12:13;;;;;;;4.95;3.08;;;19.70;99.90;;;;;;10477586;28;20196;-80
2022/09/23 14:17:35;;;;;;;3.92;1.85;;;19.20;99.90;;;;;;10475267;28;20192;-80
2022/09/23 14:23:10;;;;;;;1.85;1.33;;;18.90;99.90;;;;;;10473738;28;20208;-81
2022/09/23 14:28:32;;;;;;;1.70;0.90;;;18.90;99.90;;;;;;10494730;28;20222;-80
2022/09/23 14:33:54;;;;;;;1.40;1.30;;;18.80;99.90;;;;;;10468609;28;20217;-80
2022/09/23 14:39:15;;;;;;;0.93;0.90;;;18.60;99.90;;;;;;10460150;28;20194;-83
2022/09/23 14:44:38;;;;;;;3.72;1.70;;;18.40;99.90;;;;;;10473722;28;20519;-81
2022/09/23 14:55:40;;;;;;;3.55;2.33;;;17.70;99.90;;;;;;10473995;28;20392;-82
2022/09/23 15:01:03;;;;;;;8.75;3.90;;;17.50;99.90;;;;;;10473944;28;20192;-81
2022/09/23 15:06:25;;;;;;;7.60;4.40;;;17.30;99.90;;;;;;10463303;28;20231;-84
2022/09/23 15:11:46;;;;;;;7.30;4.47;;;17.10;1.00;;;;;;10477997;28;20200;-81
2022/09/23 15:17:32;;;;;;;7.05;4.03;;;17.00;1.00;;;;;;10477700;28;20272;-81
2022/09/23 15:22:54;;;;;;;5.35;4.20;;;16.80;1.00;;;;;;10464176;28;20209;-81
2022/09/23 15:28:17;;;;;;;4.03;2.40;;;;;;;;;;10458377;28;20229;-81
2022/09/23 15:33:39;;;;;;;4.60;3.13;;;;;;;;;;10433873;28;20205;-81
2022/09/23 15:39:07;;;;;;;5.55;3.33;;;17.40;99.90;;;;;;10437135;28;20360;-81
2022/09/23 15:44:32;;;;;;;6.13;3.72;;;;;;;;;;10463746;28;20299;-81
2022/09/23 15:49:53;;;;;;;8.45;4.85;;;16.40;1.00;;;;;;10462165;28;20189;-81
2022/09/23 15:55:17;;;;;;;14.30;9.15;;;16.30;1.00;;;;;;10463554;28;20195;-79
2022/09/23 16:00:39;;;;;;;55.35;20.73;;;;;;;;;;10477808;28;20185;-81
2022/09/23 16:06:01;;;;;;;33.30;15.43;;;;;;;;;;10478101;28;20241;-79
2022/09/23 16:11:30;;;;;;;24.70;14.50;;;16.40;1.00;;;;;;10476577;28;20188;-79
2022/09/23 16:16:51;;;;;;;20.98;13.98;;;15.50;1.00;;;;;;10463664;28;20198;-79
2022/09/23 16:22:14;;;;;;;24.73;17.40;;;15.50;1.00;;;;;;10464586;28;20202;-82
2022/09/23 16:27:36;;;;;;;41.88;25.67;;;15.30;1.00;;;;;;10486189;28;20221;-83
2022/09/23 16:32:59;;;;;;;49.90;29.25;;;15.30;18.40;;;;;;10476396;28;20389;-83
2022/09/23 16:38:20;;;;;;;229.60;130.55;;;15.30;99.90;;;;;;10460635;28;20440;-83
2022/09/23 16:43:41;;;;;;;224.82;122.80;;;15.20;1.00;;;;;;10474430;28;20190;-80
2022/09/23 16:49:03;;;;;;;152.82;90.68;;;;;;;;;;10472578;28;20495;-79
2022/09/23 16:54:24;;;;;;;104.18;62.47;;;;;;;;;;10480269;28;20198;-79
2022/09/23 17:05:27;;;;;;;80.10;46.70;;;;;;;;;;10483354;28;20243;-79
2022/09/23 17:10:55;;;;;;;80.88;46.90;;;;;;;;;;10483324;28;20191;-77
2022/09/23 17:16:22;;;;;;;78.72;48.13;;;;;;;;;;10483017;28;20576;-79
2022/09/23 17:21:43;;;;;;;95.35;53.38;;;;;;;;;;10483795;28;20246;-79
2022/09/23 17:27:05;;;;;;;100.47;57.05;;;;;;;;;;10478453;28;20230;-81
2022/09/23 17:32:27;;;;;;;90.10;52.80;;;;;;;;;;10441502;28;20237;-79
2022/09/23 17:37:49;;;;;;;76.50;44.67;;;;;;;;;;10444786;28;20227;-79
2022/09/23 17:43:10;;;;;;;92.70;50.72;;;;;;;;;;10482997;28;20197;-79
2022/09/23 17:48:35;;;;;;;101.07;56.38;;;;;;;;;;10467818;28;20540;-78
2022/09/23 17:53:57;;;;;;;87.18;52.13;;;;;;;;;;10482051;28;20191;-78
2022/09/23 17:59:19;;;;;;;68.47;42.25;;;;;;;;;;10482507;28;20199;-82
2022/09/23 18:04:40;;;;;;;63.83;38.10;;;;;;;;;;10441033;28;20542;-82
2022/09/23 18:10:03;;;;;;;74.38;44.55;;;;;;;;;;10459777;28;20305;-79
2022/09/23 18:15:24;;;;;;;72.75;40.83;;;;;;;;;;10481012;28;20419;-79
2022/09/23 18:20:46;;;;;;;61.17;36.97;;;;;;;;;;10466571;28;20192;-79
2022/09/23 18:26:18;;;;;;;63.85;36.03;;;;;;;;;;10476490;28;20433;-78
2022/09/23 18:31:40;;;;;;;64.85;36.15;;;;;;;;;;10466505;28;20207;-78
2022/09/23 18:37:02;;;;;;;60.03;35.40;;;;;;;;;;10486565;28;20209;-81
2022/09/23 18:42:26;;;;;;;76.23;44.73;;;;;;;;;;10466373;28;20198;-81
2022/09/23 18:53:46;;;;;;;75.50;47.03;;;;;;;;;;10460361;28;20203;-79
2022/09/23 18:59:13;;;;;;;70.13;42.27;;;;;;;;;;10475227;28;20257;-82
2022/09/23 19:04:34;;;;;;;74.13;38.72;;;;;;;;;;10474394;28;20242;-79
2022/09/23 19:09:56;;;;;;;71.17;36.60;;;;;;;;;;10476199;28;20202;-81
2022/09/23 19:15:18;;;;;;;72.47;34.57;;;;;;;;;;10464654;28;20245;-81
2022/09/23 19:20:53;;;;;;;69.65;32.50;;;;;;;;;;10476175;28;20497;-79
2022/09/23 19:26:16;;;;;;;61.30;33.35;;;;;;;;;;10472387;28;20245;-80
2022/09/23 19:31:42;;;;;;;61.90;35.33;;;;;;;;;;10463756;28;20207;-81
2022/09/23 19:37:04;;;;;;;53.88;28.15;;;;;;;;;;10463743;28;20232;-79
2022/09/23 19:42:27;;;;;;;47.90;27.27;;;13.20;1.00;;;;;;10463249;28;20194;-81
2022/09/23 19:47:55;;;;;;;46.57;27.40;;;;;;;;;;10463484;28;20234;-78
2022/09/23 19:53:16;;;;;;;47.03;27.80;;;12.80;1.00;;;;;;10463361;28;20203;-81
2022/09/23 19:58:37;;;;;;;49.20;28.03;;;12.70;1.00;;;;;;10478377;28;20265;-79
2022/09/23 20:03:59;;;;;;;49.10;29.37;;;12.70;1.00;;;;;;10463176;28;20229;-79
2022/09/23 20:09:20;;;;;;;52.47;29.40;;;12.70;16.50;;;;;;10476821;28;20194;-82
2022/09/23 20:14:42;;;;;;;49.10;28.70;;;12.70;99.90;;;;;;10477632;28;20197;-81
2022/09/23 20:20:04;;;;;;;47.60;30.43;;;12.60;99.90;;;;;;10478237;28;20209;-80
2022/09/23 20:25:26;;;;;;;51.63;28.43;;;;;;;;;;10458023;28;20218;-82
2022/09/23 20:30:50;;;;;;;45.83;28.73;;;12.40;99.90;;;;;;10471269;28;20224;-82
2022/09/23 20:36:12;;;;;;;47.53;27.00;;;;;;;;;;10467446;28;20193;-82
2022/09/23 20:41:36;;;;;;;45.53;25.50;;;;;;;;;;10484846;28;20187;-79
2022/09/23 20:46:57;;;;;;;42.43;23.77;;;;;;;;;;10469989;28;20259;-81
2022/09/23 20:52:29;;;;;;;38.57;24.57;;;;;;;;;;10469785;28;20224;-80
2022/09/23 20:57:53;;;;;;;49.57;25.93;;;;;;;;;;10483764;28;20202;-78
2022/09/23 21:03:14;;;;;;;38.23;24.90;;;11.80;99.90;;;;;;10484187;28;20388;-80
2022/09/23 21:08:36;;;;;;;46.33;27.20;;;11.90;1.00;;;;;;10469557;28;20214;-82
2022/09/23 21:13:59;;;;;;;40.97;25.03;;;;;;;;;;10484423;28;20189;-82
2022/09/23 21:19:23;;;;;;;46.27;27.40;;;;;;;;;;10454943;28;20213;-81
2022/09/23 21:24:44;;;;;;;49.10;28.37;;;;;;;;;;10487544;28;20203;-82
2022/09/23 21:30:29;;;;;;;50.03;29.60;;;;;;;;;;10482560;28;20209;-82
2022/09/23 21:35:54;;;;;;;45.13;28.27;;;11.70;1.00;;;;;;10468481;28;20244;-80
2022/09/23 21:41:16;;;;;;;43.27;26.17;;;11.70;1.00;;;;;;10468383;28;20196;-79
2022/09/23 21:46:37;;;;;;;41.93;24.83;;;11.60;1.00;;;;;;10482037;28;20232;-79
2022/09/23 21:51:59;;;;;;;47.77;26.30;;;11.50;1.00;;;;;;10481884;28;20247;-77
2022/09/23 21:57:24;;;;;;;43.20;25.67;;;11.50;1.00;;;;;;10481931;28;20277;-82
2022/09/23 22:02:45;;;;;;;52.67;28.30;;;11.40;1.00;;;;;;10482586;28;20189;-79
2022/09/23 22:08:07;;;;;;;46.43;26.47;;;11.30;1.00;;;;;;10467036;28;20244;-79
2022/09/23 22:13:29;;;;;;;49.17;29.77;;;11.20;1.00;;;;;;10480930;28;20499;-79
2022/09/23 22:18:54;;;;;;;54.67;28.83;;;11.20;1.00;;;;;;10480715;28;20232;-78
2022/09/23 22:24:15;;;;;;;58.53;33.03;;;11.20;1.00;;;;;;10456977;28;20196;-80
2022/09/23 22:35:16;;;;;;;58.50;33.57;;;11.00;1.00;;;;;;10479867;28;20204;-81
2022/09/23 22:40:41;;;;;;;58.43;33.53;;;10.90;1.00;;;;;;10466223;28;20217;-80
2022/09/23 22:46:02;;;;;;;61.10;31.40;;;10.80;1.00;;;;;;10451872;28;20220;-81
2022/09/23 22:51:23;;;;;;;53.80;31.20;;;10.80;1.00;;;;;;10479063;28;20496;-81
2022/09/23 22:56:44;;;;;;;49.37;27.80;;;10.70;1.00;;;;;;10465508;28;20302;-81
2022/09/23 23:02:06;;;;;;;44.23;26.70;;;;;;;;;;10481038;28;20422;-81
2022/09/23 23:07:31;;;;;;;44.53;24.40;;;;;;;;;;10479892;28;20259;-81
2022/09/23 23:12:52;;;;;;;31.33;18.03;;;;;;;;;;10470423;28;20257;-78
2022/09/23 23:18:14;;;;;;;32.10;17.60;;;;;;;;;;10498407;28;20201;-79
2022/09/23 23:23:39;;;;;;;25.83;16.00;;;;;;;;;;10464395;28;20204;-79
2022/09/23 23:29:01;;;;;;;24.50;13.97;;;;;;;;;;10477983;28;20220;-80
2022/09/23 23:34:23;;;;;;;20.17;12.63;;;;;;;;;;10477896;28;20384;-81
2022/09/23 23:39:46;;;;;;;20.63;12.33;;;;;;;;;;10479736;28;20436;-79
2022/09/23 23:45:08;;;;;;;17.43;11.60;;;;;;;;;;10477511;28;20194;-79
2022/09/23 23:50:29;;;;;;;17.10;11.27;;;;;;;;;;10478849;28;20198;-81
2022/09/23 23:55:51;;;;;;;18.03;11.10;;;;;;;;;;10477784;28;20195;-79
